sensor_id;sensor_type;location;lat;lon;timestamp;P1;durP1;ratioP1;P2;durP2;ratioP2
72584;SDS011;60618;40.084;32.908;2023-04-25T00:00:58;20.57;;;10.83;;
72584;SDS011;60618;40.084;32.908;2023-04-25T00:03:25;22.90;;;12.27;;
72584;SDS011;60618;40.084;32.908;2023-04-25T00:05:52;19.80;;;9.63;;
72584;SDS011;60618;40.084;32.908;2023-04-25T00:08:19;21.65;;;9.73;;
72584;SDS011;60618;40.084;32.908;2023-04-25T00:10:46;19.45;;;9.90;;
72584;SDS011;60618;40.084;32.908;2023-04-25T00:13:13;19.87;;;9.37;;
72584;SDS011;60618;40.084;32.908;2023-04-25T00:15:39;15.68;;;7.78;;
72584;SDS011;60618;40.084;32.908;2023-04-25T00:18:07;19.77;;;9.93;;
72584;SDS011;60618;40.084;32.908;2023-04-25T00:20:35;20.98;;;9.77;;
72584;SDS011;60618;40.084;32.908;2023-04-25T00:23:01;15.95;;;8.00;;
72584;SDS011;60618;40.084;32.908;2023-04-25T00:25:28;18.67;;;9.73;;
72584;SDS011;60618;40.084;32.908;2023-04-25T00:27:55;19.95;;;9.38;;
72584;SDS011;60618;40.084;32.908;2023-04-25T00:30:22;15.98;;;8.52;;
72584;SDS011;60618;40.084;32.908;2023-04-25T00:32:49;17.65;;;9.18;;
72584;SDS011;60618;40.084;32.908;2023-04-25T00:35:16;16.92;;;8.90;;
72584;SDS011;60618;40.084;32.908;2023-04-25T00:37:43;17.37;;;9.07;;
72584;SDS011;60618;40.084;32.908;2023-04-25T00:40:10;20.02;;;10.15;;
72584;SDS011;60618;40.084;32.908;2023-04-25T00:42:37;21.52;;;10.40;;
72584;SDS011;60618;40.084;32.908;2023-04-25T00:45:05;22.75;;;10.00;;
72584;SDS011;60618;40.084;32.908;2023-04-25T00:47:32;18.83;;;9.60;;
72584;SDS011;60618;40.084;32.908;2023-04-25T00:49:59;17.90;;;9.07;;
72584;SDS011;60618;40.084;32.908;2023-04-25T00:52:26;19.67;;;10.07;;
72584;SDS011;60618;40.084;32.908;2023-04-25T00:54:53;18.15;;;9.07;;
72584;SDS011;60618;40.084;32.908;2023-04-25T00:57:21;20.88;;;10.48;;
72584;SDS011;60618;40.084;32.908;2023-04-25T00:59:48;18.65;;;8.88;;
72584;SDS011;60618;40.084;32.908;2023-04-25T01:02:17;17.47;;;8.00;;
72584;SDS011;60618;40.084;32.908;2023-04-25T01:04:45;17.95;;;8.43;;
72584;SDS011;60618;40.084;32.908;2023-04-25T01:07:11;16.38;;;7.90;;
72584;SDS011;60618;40.084;32.908;2023-04-25T01:09:39;15.75;;;7.78;;
72584;SDS011;60618;40.084;32.908;2023-04-25T01:12:05;19.42;;;9.00;;
72584;SDS011;60618;40.084;32.908;2023-04-25T01:14:32;16.00;;;8.30;;
72584;SDS011;60618;40.084;32.908;2023-04-25T01:16:59;16.33;;;7.88;;
72584;SDS011;60618;40.084;32.908;2023-04-25T01:19:27;15.95;;;8.35;;
72584;SDS011;60618;40.084;32.908;2023-04-25T01:21:54;16.83;;;8.23;;
72584;SDS011;60618;40.084;32.908;2023-04-25T01:24:21;19.52;;;9.82;;
72584;SDS011;60618;40.084;32.908;2023-04-25T01:26:48;18.33;;;7.93;;
72584;SDS011;60618;40.084;32.908;2023-04-25T01:29:16;18.20;;;9.68;;
72584;SDS011;60618;40.084;32.908;2023-04-25T01:31:46;18.23;;;8.73;;
72584;SDS011;60618;40.084;32.908;2023-04-25T01:34:13;16.15;;;8.27;;
72584;SDS011;60618;40.084;32.908;2023-04-25T01:36:40;18.48;;;10.18;;
72584;SDS011;60618;40.084;32.908;2023-04-25T01:39:07;18.87;;;8.57;;
72584;SDS011;60618;40.084;32.908;2023-04-25T01:41:34;20.95;;;10.25;;
72584;SDS011;60618;40.084;32.908;2023-04-25T01:44:01;18.92;;;10.52;;
72584;SDS011;60618;40.084;32.908;2023-04-25T01:46:30;21.33;;;10.07;;
72584;SDS011;60618;40.084;32.908;2023-04-25T01:48:57;14.43;;;7.53;;
72584;SDS011;60618;40.084;32.908;2023-04-25T01:51:23;18.63;;;8.77;;
72584;SDS011;60618;40.084;32.908;2023-04-25T01:53:50;16.63;;;8.68;;
72584;SDS011;60618;40.084;32.908;2023-04-25T01:56:18;14.75;;;7.60;;
72584;SDS011;60618;40.084;32.908;2023-04-25T01:58:45;16.52;;;8.00;;
72584;SDS011;60618;40.084;32.908;2023-04-25T02:01:12;16.92;;;9.13;;
72584;SDS011;60618;40.084;32.908;2023-04-25T02:03:39;19.37;;;9.00;;
72584;SDS011;60618;40.084;32.908;2023-04-25T02:06:07;16.30;;;8.18;;
72584;SDS011;60618;40.084;32.908;2023-04-25T02:08:33;17.55;;;8.30;;
72584;SDS011;60618;40.084;32.908;2023-04-25T02:11:00;17.90;;;9.25;;
72584;SDS011;60618;40.084;32.908;2023-04-25T02:13:27;18.60;;;8.32;;
72584;SDS011;60618;40.084;32.908;2023-04-25T02:15:54;17.30;;;8.37;;
72584;SDS011;60618;40.084;32.908;2023-04-25T02:18:21;17.65;;;9.30;;
72584;SDS011;60618;40.084;32.908;2023-04-25T02:20:48;18.90;;;10.00;;
72584;SDS011;60618;40.084;32.908;2023-04-25T02:23:15;20.88;;;10.85;;
72584;SDS011;60618;40.084;32.908;2023-04-25T02:25:42;20.45;;;10.52;;
72584;SDS011;60618;40.084;32.908;2023-04-25T02:28:08;21.17;;;9.70;;
72584;SDS011;60618;40.084;32.908;2023-04-25T02:30:35;22.02;;;10.48;;
72584;SDS011;60618;40.084;32.908;2023-04-25T02:33:03;20.08;;;10.45;;
72584;SDS011;60618;40.084;32.908;2023-04-25T02:35:30;18.80;;;9.10;;
72584;SDS011;60618;40.084;32.908;2023-04-25T02:37:56;14.80;;;7.28;;
72584;SDS011;60618;40.084;32.908;2023-04-25T02:40:23;17.77;;;8.70;;
72584;SDS011;60618;40.084;32.908;2023-04-25T02:42:50;16.70;;;8.73;;
72584;SDS011;60618;40.084;32.908;2023-04-25T02:45:17;17.45;;;8.82;;
72584;SDS011;60618;40.084;32.908;2023-04-25T02:47:44;20.92;;;9.85;;
72584;SDS011;60618;40.084;32.908;2023-04-25T02:50:11;19.52;;;9.85;;
72584;SDS011;60618;40.084;32.908;2023-04-25T02:52:38;20.77;;;10.13;;
72584;SDS011;60618;40.084;32.908;2023-04-25T02:55:05;20.40;;;10.25;;
72584;SDS011;60618;40.084;32.908;2023-04-25T02:57:32;19.05;;;9.93;;
72584;SDS011;60618;40.084;32.908;2023-04-25T02:59:59;20.05;;;10.38;;
72584;SDS011;60618;40.084;32.908;2023-04-25T03:02:26;21.15;;;10.73;;
72584;SDS011;60618;40.084;32.908;2023-04-25T03:04:53;20.50;;;10.90;;
72584;SDS011;60618;40.084;32.908;2023-04-25T03:07:20;21.08;;;10.32;;
72584;SDS011;60618;40.084;32.908;2023-04-25T03:09:47;16.45;;;8.48;;
72584;SDS011;60618;40.084;32.908;2023-04-25T03:12:13;18.08;;;9.88;;
72584;SDS011;60618;40.084;32.908;2023-04-25T03:14:40;19.63;;;9.95;;
72584;SDS011;60618;40.084;32.908;2023-04-25T03:17:07;17.23;;;9.27;;
72584;SDS011;60618;40.084;32.908;2023-04-25T03:19:34;19.45;;;9.50;;
72584;SDS011;60618;40.084;32.908;2023-04-25T03:22:01;15.93;;;8.38;;
72584;SDS011;60618;40.084;32.908;2023-04-25T03:24:28;14.07;;;7.68;;
72584;SDS011;60618;40.084;32.908;2023-04-25T03:26:55;15.48;;;8.20;;
72584;SDS011;60618;40.084;32.908;2023-04-25T03:29:22;12.43;;;6.43;;
72584;SDS011;60618;40.084;32.908;2023-04-25T03:31:48;13.43;;;7.03;;
72584;SDS011;60618;40.084;32.908;2023-04-25T03:34:15;15.23;;;7.50;;
72584;SDS011;60618;40.084;32.908;2023-04-25T03:36:42;14.93;;;8.43;;
72584;SDS011;60618;40.084;32.908;2023-04-25T03:39:09;16.80;;;8.90;;
72584;SDS011;60618;40.084;32.908;2023-04-25T03:41:36;15.60;;;8.70;;
72584;SDS011;60618;40.084;32.908;2023-04-25T03:44:03;16.42;;;9.38;;
72584;SDS011;60618;40.084;32.908;2023-04-25T03:46:30;17.88;;;9.55;;
72584;SDS011;60618;40.084;32.908;2023-04-25T03:48:57;16.67;;;9.43;;
72584;SDS011;60618;40.084;32.908;2023-04-25T03:51:24;18.23;;;10.82;;
72584;SDS011;60618;40.084;32.908;2023-04-25T03:53:51;18.73;;;9.27;;
72584;SDS011;60618;40.084;32.908;2023-04-25T03:56:19;20.92;;;9.60;;
72584;SDS011;60618;40.084;32.908;2023-04-25T03:58:46;16.95;;;9.55;;
72584;SDS011;60618;40.084;32.908;2023-04-25T04:01:13;19.70;;;9.48;;
72584;SDS011;60618;40.084;32.908;2023-04-25T04:03:40;21.65;;;10.52;;
72584;SDS011;60618;40.084;32.908;2023-04-25T04:06:07;22.50;;;10.73;;
72584;SDS011;60618;40.084;32.908;2023-04-25T04:08:34;19.52;;;11.10;;
72584;SDS011;60618;40.084;32.908;2023-04-25T04:11:01;21.40;;;10.82;;
72584;SDS011;60618;40.084;32.908;2023-04-25T04:13:28;20.02;;;11.20;;
72584;SDS011;60618;40.084;32.908;2023-04-25T04:15:55;19.60;;;10.88;;
72584;SDS011;60618;40.084;32.908;2023-04-25T04:18:23;20.63;;;11.10;;
72584;SDS011;60618;40.084;32.908;2023-04-25T04:20:50;18.27;;;10.48;;
72584;SDS011;60618;40.084;32.908;2023-04-25T04:23:17;23.10;;;11.52;;
72584;SDS011;60618;40.084;32.908;2023-04-25T04:25:43;21.42;;;11.30;;
72584;SDS011;60618;40.084;32.908;2023-04-25T04:28:10;23.10;;;11.80;;
72584;SDS011;60618;40.084;32.908;2023-04-25T04:30:37;24.07;;;11.90;;
72584;SDS011;60618;40.084;32.908;2023-04-25T04:33:04;22.50;;;12.35;;
72584;SDS011;60618;40.084;32.908;2023-04-25T04:35:31;21.33;;;12.48;;
72584;SDS011;60618;40.084;32.908;2023-04-25T04:37:58;26.55;;;12.63;;
72584;SDS011;60618;40.084;32.908;2023-04-25T04:40:25;20.77;;;12.10;;
72584;SDS011;60618;40.084;32.908;2023-04-25T04:42:52;23.13;;;12.23;;
72584;SDS011;60618;40.084;32.908;2023-04-25T04:45:19;23.05;;;12.98;;
72584;SDS011;60618;40.084;32.908;2023-04-25T04:47:46;21.58;;;11.93;;
72584;SDS011;60618;40.084;32.908;2023-04-25T04:50:13;20.60;;;11.48;;
72584;SDS011;60618;40.084;32.908;2023-04-25T04:52:40;19.63;;;10.63;;
72584;SDS011;60618;40.084;32.908;2023-04-25T04:55:07;21.10;;;11.67;;
72584;SDS011;60618;40.084;32.908;2023-04-25T04:57:34;21.67;;;12.27;;
72584;SDS011;60618;40.084;32.908;2023-04-25T05:00:01;23.27;;;12.52;;
72584;SDS011;60618;40.084;32.908;2023-04-25T05:02:28;20.30;;;12.15;;
72584;SDS011;60618;40.084;32.908;2023-04-25T05:04:56;21.98;;;12.50;;
72584;SDS011;60618;40.084;32.908;2023-04-25T05:07:23;22.97;;;13.03;;
72584;SDS011;60618;40.084;32.908;2023-04-25T05:09:50;24.27;;;12.70;;
72584;SDS011;60618;40.084;32.908;2023-04-25T05:12:17;24.17;;;14.10;;
72584;SDS011;60618;40.084;32.908;2023-04-25T05:14:44;24.50;;;12.80;;
72584;SDS011;60618;40.084;32.908;2023-04-25T05:17:11;24.88;;;13.00;;
72584;SDS011;60618;40.084;32.908;2023-04-25T05:19:38;23.47;;;13.27;;
72584;SDS011;60618;40.084;32.908;2023-04-25T05:22:05;23.95;;;13.18;;
72584;SDS011;60618;40.084;32.908;2023-04-25T05:24:32;25.20;;;13.70;;
72584;SDS011;60618;40.084;32.908;2023-04-25T05:26:59;24.23;;;13.20;;
72584;SDS011;60618;40.084;32.908;2023-04-25T05:29:26;25.85;;;13.00;;
72584;SDS011;60618;40.084;32.908;2023-04-25T05:31:53;24.20;;;12.73;;
72584;SDS011;60618;40.084;32.908;2023-04-25T05:34:20;21.17;;;12.23;;
72584;SDS011;60618;40.084;32.908;2023-04-25T05:36:47;23.83;;;13.20;;
72584;SDS011;60618;40.084;32.908;2023-04-25T05:39:15;25.42;;;12.90;;
72584;SDS011;60618;40.084;32.908;2023-04-25T05:41:42;22.08;;;12.20;;
72584;SDS011;60618;40.084;32.908;2023-04-25T05:44:09;21.43;;;12.17;;
72584;SDS011;60618;40.084;32.908;2023-04-25T05:46:36;17.23;;;11.50;;
72584;SDS011;60618;40.084;32.908;2023-04-25T05:49:04;19.85;;;10.70;;
72584;SDS011;60618;40.084;32.908;2023-04-25T05:51:30;19.30;;;10.57;;
72584;SDS011;60618;40.084;32.908;2023-04-25T05:53:57;19.65;;;11.15;;
72584;SDS011;60618;40.084;32.908;2023-04-25T05:56:24;19.50;;;11.37;;
72584;SDS011;60618;40.084;32.908;2023-04-25T05:58:51;23.60;;;11.93;;
72584;SDS011;60618;40.084;32.908;2023-04-25T06:01:18;23.67;;;11.63;;
72584;SDS011;60618;40.084;32.908;2023-04-25T06:03:45;18.05;;;11.30;;
72584;SDS011;60618;40.084;32.908;2023-04-25T06:06:13;19.08;;;10.57;;
72584;SDS011;60618;40.084;32.908;2023-04-25T06:08:40;19.73;;;10.27;;
72584;SDS011;60618;40.084;32.908;2023-04-25T06:11:07;18.27;;;10.48;;
72584;SDS011;60618;40.084;32.908;2023-04-25T06:13:34;18.98;;;10.80;;
72584;SDS011;60618;40.084;32.908;2023-04-25T06:16:01;19.23;;;9.90;;
72584;SDS011;60618;40.084;32.908;2023-04-25T06:18:28;17.17;;;10.07;;
72584;SDS011;60618;40.084;32.908;2023-04-25T06:20:55;18.03;;;10.40;;
72584;SDS011;60618;40.084;32.908;2023-04-25T06:23:22;18.05;;;10.73;;
72584;SDS011;60618;40.084;32.908;2023-04-25T06:25:49;18.73;;;10.40;;
72584;SDS011;60618;40.084;32.908;2023-04-25T06:28:16;17.52;;;10.48;;
72584;SDS011;60618;40.084;32.908;2023-04-25T06:30:43;17.55;;;10.18;;
72584;SDS011;60618;40.084;32.908;2023-04-25T06:33:10;18.47;;;9.63;;
72584;SDS011;60618;40.084;32.908;2023-04-25T06:35:37;15.85;;;9.32;;
72584;SDS011;60618;40.084;32.908;2023-04-25T06:38:03;15.65;;;9.85;;
72584;SDS011;60618;40.084;32.908;2023-04-25T06:40:30;18.48;;;10.48;;
72584;SDS011;60618;40.084;32.908;2023-04-25T06:42:57;17.80;;;10.13;;
72584;SDS011;60618;40.084;32.908;2023-04-25T06:45:24;16.07;;;9.40;;
72584;SDS011;60618;40.084;32.908;2023-04-25T06:47:51;15.45;;;9.88;;
72584;SDS011;60618;40.084;32.908;2023-04-25T06:50:18;14.65;;;9.43;;
72584;SDS011;60618;40.084;32.908;2023-04-25T06:52:45;14.30;;;9.10;;
72584;SDS011;60618;40.084;32.908;2023-04-25T06:55:12;17.08;;;9.02;;
72584;SDS011;60618;40.084;32.908;2023-04-25T06:57:39;13.77;;;8.27;;
72584;SDS011;60618;40.084;32.908;2023-04-25T07:00:06;14.45;;;8.93;;
72584;SDS011;60618;40.084;32.908;2023-04-25T07:02:33;14.00;;;8.35;;
72584;SDS011;60618;40.084;32.908;2023-04-25T07:05:00;15.82;;;9.18;;
72584;SDS011;60618;40.084;32.908;2023-04-25T07:07:28;15.00;;;8.98;;
72584;SDS011;60618;40.084;32.908;2023-04-25T07:09:55;15.17;;;8.70;;
72584;SDS011;60618;40.084;32.908;2023-04-25T07:12:22;16.35;;;8.35;;
72584;SDS011;60618;40.084;32.908;2023-04-25T07:14:48;13.25;;;8.38;;
72584;SDS011;60618;40.084;32.908;2023-04-25T07:17:15;15.48;;;8.68;;
72584;SDS011;60618;40.084;32.908;2023-04-25T07:19:42;17.63;;;8.95;;
72584;SDS011;60618;40.084;32.908;2023-04-25T07:22:09;15.70;;;7.97;;
72584;SDS011;60618;40.084;32.908;2023-04-25T07:24:36;15.93;;;8.48;;
72584;SDS011;60618;40.084;32.908;2023-04-25T07:27:05;14.63;;;9.13;;
72584;SDS011;60618;40.084;32.908;2023-04-25T07:29:32;17.05;;;8.82;;
72584;SDS011;60618;40.084;32.908;2023-04-25T07:31:59;15.30;;;8.38;;
72584;SDS011;60618;40.084;32.908;2023-04-25T07:34:26;14.17;;;8.17;;
72584;SDS011;60618;40.084;32.908;2023-04-25T07:36:53;13.57;;;7.22;;
72584;SDS011;60618;40.084;32.908;2023-04-25T07:39:19;13.20;;;7.35;;
72584;SDS011;60618;40.084;32.908;2023-04-25T07:41:46;15.35;;;7.43;;
72584;SDS011;60618;40.084;32.908;2023-04-25T07:44:13;12.52;;;7.53;;
72584;SDS011;60618;40.084;32.908;2023-04-25T07:46:40;14.03;;;8.73;;
72584;SDS011;60618;40.084;32.908;2023-04-25T07:49:07;14.45;;;7.93;;
72584;SDS011;60618;40.084;32.908;2023-04-25T07:51:34;13.52;;;7.60;;
72584;SDS011;60618;40.084;32.908;2023-04-25T07:54:01;12.52;;;6.40;;
72584;SDS011;60618;40.084;32.908;2023-04-25T07:56:28;10.60;;;5.22;;
72584;SDS011;60618;40.084;32.908;2023-04-25T07:59:10;10.93;;;5.73;;
72584;SDS011;60618;40.084;32.908;2023-04-25T08:01:37;9.90;;;5.35;;
72584;SDS011;60618;40.084;32.908;2023-04-25T08:04:04;10.15;;;5.13;;
72584;SDS011;60618;40.084;32.908;2023-04-25T08:06:31;9.85;;;4.95;;
72584;SDS011;60618;40.084;32.908;2023-04-25T08:08:58;10.50;;;4.82;;
72584;SDS011;60618;40.084;32.908;2023-04-25T08:11:25;10.57;;;5.43;;
72584;SDS011;60618;40.084;32.908;2023-04-25T08:13:52;10.23;;;5.55;;
72584;SDS011;60618;40.084;32.908;2023-04-25T08:16:19;11.00;;;5.20;;
72584;SDS011;60618;40.084;32.908;2023-04-25T08:18:46;12.80;;;5.57;;
72584;SDS011;60618;40.084;32.908;2023-04-25T08:21:13;10.52;;;5.45;;
72584;SDS011;60618;40.084;32.908;2023-04-25T08:23:40;8.30;;;5.53;;
72584;SDS011;60618;40.084;32.908;2023-04-25T08:26:07;8.60;;;5.18;;
72584;SDS011;60618;40.084;32.908;2023-04-25T08:28:34;10.93;;;4.82;;
72584;SDS011;60618;40.084;32.908;2023-04-25T08:31:01;8.93;;;5.28;;
72584;SDS011;60618;40.084;32.908;2023-04-25T08:33:27;8.48;;;5.10;;
72584;SDS011;60618;40.084;32.908;2023-04-25T08:35:54;9.03;;;4.77;;
72584;SDS011;60618;40.084;32.908;2023-04-25T08:38:21;9.35;;;5.32;;
72584;SDS011;60618;40.084;32.908;2023-04-25T08:40:51;10.25;;;5.82;;
72584;SDS011;60618;40.084;32.908;2023-04-25T08:43:18;9.43;;;5.32;;
72584;SDS011;60618;40.084;32.908;2023-04-25T08:45:46;9.30;;;5.25;;
72584;SDS011;60618;40.084;32.908;2023-04-25T08:48:14;9.60;;;5.73;;
72584;SDS011;60618;40.084;32.908;2023-04-25T08:50:48;8.27;;;5.72;;
72584;SDS011;60618;40.084;32.908;2023-04-25T08:53:17;10.23;;;6.35;;
72584;SDS011;60618;40.084;32.908;2023-04-25T08:55:58;11.75;;;6.40;;
72584;SDS011;60618;40.084;32.908;2023-04-25T08:58:26;9.32;;;5.70;;
72584;SDS011;60618;40.084;32.908;2023-04-25T09:00:54;9.57;;;5.50;;
72584;SDS011;60618;40.084;32.908;2023-04-25T09:03:21;11.52;;;6.22;;
72584;SDS011;60618;40.084;32.908;2023-04-25T09:05:49;10.10;;;6.25;;
72584;SDS011;60618;40.084;32.908;2023-04-25T09:08:16;11.73;;;6.53;;
72584;SDS011;60618;40.084;32.908;2023-04-25T09:10:43;10.15;;;5.38;;
72584;SDS011;60618;40.084;32.908;2023-04-25T09:13:11;9.97;;;5.30;;
72584;SDS011;60618;40.084;32.908;2023-04-25T09:15:56;8.88;;;5.40;;
72584;SDS011;60618;40.084;32.908;2023-04-25T09:20:57;8.73;;;5.20;;
72584;SDS011;60618;40.084;32.908;2023-04-25T09:23:47;9.00;;;4.25;;
72584;SDS011;60618;40.084;32.908;2023-04-25T09:26:15;9.97;;;4.90;;
72584;SDS011;60618;40.084;32.908;2023-04-25T09:28:44;8.18;;;4.70;;
72584;SDS011;60618;40.084;32.908;2023-04-25T09:31:12;7.82;;;4.50;;
72584;SDS011;60618;40.084;32.908;2023-04-25T09:33:47;9.73;;;4.30;;
72584;SDS011;60618;40.084;32.908;2023-04-25T09:36:16;8.73;;;4.63;;
72584;SDS011;60618;40.084;32.908;2023-04-25T09:38:43;7.00;;;4.00;;
72584;SDS011;60618;40.084;32.908;2023-04-25T09:41:11;7.03;;;3.90;;
72584;SDS011;60618;40.084;32.908;2023-04-25T09:43:39;8.00;;;4.20;;
72584;SDS011;60618;40.084;32.908;2023-04-25T09:46:09;7.53;;;4.20;;
72584;SDS011;60618;40.084;32.908;2023-04-25T09:48:37;7.57;;;3.85;;
72584;SDS011;60618;40.084;32.908;2023-04-25T09:51:08;6.10;;;3.30;;
72584;SDS011;60618;40.084;32.908;2023-04-25T09:53:37;7.55;;;4.03;;
72584;SDS011;60618;40.084;32.908;2023-04-25T09:56:06;7.28;;;4.18;;
72584;SDS011;60618;40.084;32.908;2023-04-25T09:58:35;9.43;;;5.68;;
72584;SDS011;60618;40.084;32.908;2023-04-25T10:01:04;7.28;;;4.10;;
72584;SDS011;60618;40.084;32.908;2023-04-25T10:03:34;7.63;;;4.00;;
72584;SDS011;60618;40.084;32.908;2023-04-25T10:06:04;7.30;;;4.18;;
72584;SDS011;60618;40.084;32.908;2023-04-25T10:08:38;6.05;;;4.00;;
72584;SDS011;60618;40.084;32.908;2023-04-25T10:11:06;7.68;;;4.15;;
72584;SDS011;60618;40.084;32.908;2023-04-25T10:13:34;7.03;;;3.90;;
72584;SDS011;60618;40.084;32.908;2023-04-25T10:22:45;7.07;;;3.78;;
72584;SDS011;60618;40.084;32.908;2023-04-25T10:25:13;8.93;;;4.05;;
72584;SDS011;60618;40.084;32.908;2023-04-25T10:27:41;7.45;;;4.43;;
72584;SDS011;60618;40.084;32.908;2023-04-25T10:30:13;8.63;;;4.43;;
72584;SDS011;60618;40.084;32.908;2023-04-25T10:32:41;8.32;;;4.57;;
72584;SDS011;60618;40.084;32.908;2023-04-25T10:37:48;8.07;;;4.80;;
72584;SDS011;60618;40.084;32.908;2023-04-25T10:40:40;7.32;;;4.90;;
72584;SDS011;60618;40.084;32.908;2023-04-25T10:45:55;9.13;;;4.60;;
72584;SDS011;60618;40.084;32.908;2023-04-25T10:48:26;7.70;;;4.85;;
72584;SDS011;60618;40.084;32.908;2023-04-25T10:51:12;8.00;;;5.03;;
72584;SDS011;60618;40.084;32.908;2023-04-25T10:53:56;9.10;;;4.90;;
72584;SDS011;60618;40.084;32.908;2023-04-25T10:56:28;8.20;;;4.90;;
72584;SDS011;60618;40.084;32.908;2023-04-25T10:59:05;7.82;;;4.50;;
72584;SDS011;60618;40.084;32.908;2023-04-25T11:01:38;11.20;;;5.95;;
72584;SDS011;60618;40.084;32.908;2023-04-25T11:04:18;8.40;;;4.70;;
72584;SDS011;60618;40.084;32.908;2023-04-25T11:06:55;8.15;;;5.32;;
72584;SDS011;60618;40.084;32.908;2023-04-25T11:09:32;9.87;;;4.77;;
72584;SDS011;60618;40.084;32.908;2023-04-25T11:12:00;11.95;;;5.50;;
72584;SDS011;60618;40.084;32.908;2023-04-25T11:14:27;11.00;;;5.75;;
72584;SDS011;60618;40.084;32.908;2023-04-25T11:16:55;8.35;;;5.70;;
72584;SDS011;60618;40.084;32.908;2023-04-25T11:19:25;10.95;;;6.03;;
72584;SDS011;60618;40.084;32.908;2023-04-25T11:21:57;8.63;;;5.57;;
72584;SDS011;60618;40.084;32.908;2023-04-25T11:24:26;10.57;;;6.28;;
72584;SDS011;60618;40.084;32.908;2023-04-25T11:26:58;8.63;;;5.50;;
72584;SDS011;60618;40.084;32.908;2023-04-25T11:29:32;10.90;;;6.03;;
72584;SDS011;60618;40.084;32.908;2023-04-25T11:32:01;9.73;;;6.35;;
72584;SDS011;60618;40.084;32.908;2023-04-25T11:34:29;10.87;;;6.03;;
72584;SDS011;60618;40.084;32.908;2023-04-25T11:36:57;10.00;;;6.05;;
72584;SDS011;60618;40.084;32.908;2023-04-25T11:39:25;11.93;;;6.43;;
72584;SDS011;60618;40.084;32.908;2023-04-25T11:41:53;10.70;;;5.75;;
72584;SDS011;60618;40.084;32.908;2023-04-25T11:44:21;11.93;;;6.38;;
72584;SDS011;60618;40.084;32.908;2023-04-25T11:46:48;10.07;;;6.97;;
72584;SDS011;60618;40.084;32.908;2023-04-25T11:49:16;7.78;;;4.68;;
72584;SDS011;60618;40.084;32.908;2023-04-25T11:51:43;8.90;;;4.50;;
72584;SDS011;60618;40.084;32.908;2023-04-25T11:54:11;7.45;;;4.43;;
72584;SDS011;60618;40.084;32.908;2023-04-25T11:56:45;6.57;;;4.28;;
72584;SDS011;60618;40.084;32.908;2023-04-25T11:59:12;9.03;;;4.33;;
72584;SDS011;60618;40.084;32.908;2023-04-25T12:01:40;6.25;;;3.47;;
72584;SDS011;60618;40.084;32.908;2023-04-25T12:04:23;5.68;;;3.38;;
72584;SDS011;60618;40.084;32.908;2023-04-25T12:06:52;6.20;;;3.42;;
72584;SDS011;60618;40.084;32.908;2023-04-25T12:09:21;7.30;;;3.60;;
72584;SDS011;60618;40.084;32.908;2023-04-25T12:11:55;7.80;;;3.20;;
72584;SDS011;60618;40.084;32.908;2023-04-25T12:14:24;5.80;;;3.30;;
72584;SDS011;60618;40.084;32.908;2023-04-25T12:16:56;6.65;;;3.47;;
72584;SDS011;60618;40.084;32.908;2023-04-25T12:19:24;6.65;;;3.17;;
72584;SDS011;60618;40.084;32.908;2023-04-25T12:21:52;5.95;;;3.20;;
72584;SDS011;60618;40.084;32.908;2023-04-25T12:24:25;5.77;;;3.10;;
72584;SDS011;60618;40.084;32.908;2023-04-25T12:27:01;8.15;;;3.53;;
72584;SDS011;60618;40.084;32.908;2023-04-25T12:29:30;5.93;;;3.00;;
72584;SDS011;60618;40.084;32.908;2023-04-25T12:32:14;5.85;;;3.10;;
72584;SDS011;60618;40.084;32.908;2023-04-25T12:34:41;6.07;;;3.45;;
72584;SDS011;60618;40.084;32.908;2023-04-25T12:37:08;6.40;;;3.20;;
72584;SDS011;60618;40.084;32.908;2023-04-25T12:39:35;6.05;;;3.20;;
72584;SDS011;60618;40.084;32.908;2023-04-25T12:42:03;5.63;;;2.85;;
72584;SDS011;60618;40.084;32.908;2023-04-25T12:44:33;8.43;;;3.28;;
72584;SDS011;60618;40.084;32.908;2023-04-25T12:47:00;5.28;;;2.97;;
72584;SDS011;60618;40.084;32.908;2023-04-25T12:49:27;5.37;;;3.00;;
72584;SDS011;60618;40.084;32.908;2023-04-25T12:51:54;6.70;;;3.15;;
72584;SDS011;60618;40.084;32.908;2023-04-25T12:54:21;6.13;;;3.17;;
72584;SDS011;60618;40.084;32.908;2023-04-25T12:56:48;6.20;;;3.17;;
72584;SDS011;60618;40.084;32.908;2023-04-25T12:59:15;6.55;;;3.00;;
72584;SDS011;60618;40.084;32.908;2023-04-25T13:01:42;5.53;;;3.13;;
72584;SDS011;60618;40.084;32.908;2023-04-25T13:04:09;5.97;;;3.20;;
72584;SDS011;60618;40.084;32.908;2023-04-25T13:06:36;6.63;;;2.97;;
72584;SDS011;60618;40.084;32.908;2023-04-25T13:09:03;4.90;;;2.53;;
72584;SDS011;60618;40.084;32.908;2023-04-25T13:11:30;5.63;;;3.05;;
72584;SDS011;60618;40.084;32.908;2023-04-25T13:13:57;5.57;;;2.90;;
72584;SDS011;60618;40.084;32.908;2023-04-25T13:16:24;6.25;;;2.70;;
72584;SDS011;60618;40.084;32.908;2023-04-25T13:18:51;6.80;;;2.60;;
72584;SDS011;60618;40.084;32.908;2023-04-25T13:21:18;5.80;;;2.40;;
72584;SDS011;60618;40.084;32.908;2023-04-25T13:23:45;6.07;;;2.60;;
72584;SDS011;60618;40.084;32.908;2023-04-25T13:26:12;4.77;;;2.50;;
72584;SDS011;60618;40.084;32.908;2023-04-25T13:28:40;5.18;;;2.42;;
72584;SDS011;60618;40.084;32.908;2023-04-25T13:31:10;5.13;;;2.67;;
72584;SDS011;60618;40.084;32.908;2023-04-25T13:33:37;5.50;;;2.80;;
72584;SDS011;60618;40.084;32.908;2023-04-25T13:36:04;7.32;;;3.00;;
72584;SDS011;60618;40.084;32.908;2023-04-25T13:38:31;6.37;;;2.80;;
72584;SDS011;60618;40.084;32.908;2023-04-25T13:40:58;6.07;;;3.20;;
72584;SDS011;60618;40.084;32.908;2023-04-25T13:43:25;6.13;;;3.00;;
72584;SDS011;60618;40.084;32.908;2023-04-25T13:45:52;7.40;;;3.00;;
72584;SDS011;60618;40.084;32.908;2023-04-25T13:48:19;6.80;;;2.95;;
72584;SDS011;60618;40.084;32.908;2023-04-25T13:50:46;6.47;;;3.30;;
72584;SDS011;60618;40.084;32.908;2023-04-25T13:53:13;6.45;;;3.60;;
72584;SDS011;60618;40.084;32.908;2023-04-25T13:55:40;6.50;;;3.10;;
72584;SDS011;60618;40.084;32.908;2023-04-25T13:58:07;5.68;;;3.13;;
72584;SDS011;60618;40.084;32.908;2023-04-25T14:00:37;5.40;;;2.97;;
72584;SDS011;60618;40.084;32.908;2023-04-25T14:03:06;6.37;;;2.93;;
72584;SDS011;60618;40.084;32.908;2023-04-25T14:05:33;8.43;;;3.35;;
72584;SDS011;60618;40.084;32.908;2023-04-25T14:08:01;6.82;;;3.00;;
72584;SDS011;60618;40.084;32.908;2023-04-25T14:10:28;5.70;;;3.35;;
72584;SDS011;60618;40.084;32.908;2023-04-25T14:12:55;6.28;;;3.20;;
72584;SDS011;60618;40.084;32.908;2023-04-25T14:15:22;5.83;;;3.20;;
72584;SDS011;60618;40.084;32.908;2023-04-25T14:17:49;5.95;;;3.50;;
72584;SDS011;60618;40.084;32.908;2023-04-25T14:20:16;5.63;;;3.45;;
72584;SDS011;60618;40.084;32.908;2023-04-25T14:22:43;6.53;;;3.25;;
72584;SDS011;60618;40.084;32.908;2023-04-25T14:25:10;7.63;;;3.40;;
72584;SDS011;60618;40.084;32.908;2023-04-25T14:27:37;7.43;;;3.90;;
72584;SDS011;60618;40.084;32.908;2023-04-25T14:30:04;6.78;;;3.40;;
72584;SDS011;60618;40.084;32.908;2023-04-25T14:32:31;5.88;;;3.67;;
72584;SDS011;60618;40.084;32.908;2023-04-25T14:34:58;6.88;;;3.33;;
72584;SDS011;60618;40.084;32.908;2023-04-25T14:37:25;6.25;;;3.10;;
72584;SDS011;60618;40.084;32.908;2023-04-25T14:39:52;6.20;;;2.80;;
72584;SDS011;60618;40.084;32.908;2023-04-25T14:42:19;6.88;;;2.55;;